Terminal Aerodrome Forecast
Issued by NWS

Home | Current Version | Previous Version | Text Only | Print | Product List | Glossary On
Versions: 1 2 3 4 5 6 7 8 9 10 11 12 13 14 15 16 17 18 19 20 21 22 23 24 25 26 27 28
058
FTUS41 KBOX 302234 AAA
TAFBAF
TAF AMD
KBAF 302234Z 3023/3118 12011KT 1 1/2SM +RA BKN035 OVC060
     FM310300 VRB03KT P6SM VCSH FEW060 OVC090
     FM311000 00000KT 3SM BR VCSH OVC015
     FM311300 09004KT P6SM -SHRA OVC025=

USA.gov is the U.S. government's official web portal to all federal, state and local government web resources and services.